Time;durP1;ratioP1;P1;durP2;ratioP2;P2;SDS_P1;SDS_P2;PMS_P1;PMS_P2;Temp;Humidity;BMP_temperature;BMP_pressure;BME280_temperature;BME280_humidity;BME280_pressure;Samples;Min_cycle;Max_cycle;Signal;HPM_P1;HPM_P2
2021/06/11 00:01:25;;;;;;;12.10;10.80;;;17.70;99.90;;;;;;4988401;28;20019;-74
2021/06/11 00:03:50;;;;;;;12.43;11.13;;;17.70;99.90;;;;;;4994636;28;20042;-75
2021/06/11 00:06:16;;;;;;;11.70;10.50;;;17.70;99.90;;;;;;4991395;28;20022;-75
2021/06/11 00:08:41;;;;;;;12.52;11.23;;;17.70;99.90;;;;;;4991352;28;20065;-75
2021/06/11 00:11:09;;;;;;;12.13;10.93;;;17.70;99.90;;;;;;4991704;28;20089;-75
2021/06/11 00:13:42;;;;;;;12.73;10.93;;;17.60;99.90;;;;;;4991994;28;20030;-74
2021/06/11 00:16:07;;;;;;;11.50;10.40;;;17.60;99.90;;;;;;4991545;28;20030;-74
2021/06/11 00:18:36;;;;;;;11.85;10.65;;;17.60;99.90;;;;;;4990966;28;20097;-75
2021/06/11 00:21:01;;;;;;;11.95;10.65;;;17.60;99.90;;;;;;4997220;28;20405;-74
2021/06/11 00:23:29;;;;;;;11.52;10.13;;;17.60;99.90;;;;;;4995147;28;20034;-74
2021/06/11 00:26:02;;;;;;;11.52;10.43;;;17.60;99.90;;;;;;4989926;28;20026;-74
2021/06/11 00:28:28;;;;;;;11.40;10.30;;;17.50;99.90;;;;;;4974739;28;20084;-75
2021/06/11 00:30:53;;;;;;;13.23;10.98;;;17.50;99.90;;;;;;4990686;28;20053;-75
2021/06/11 00:33:19;;;;;;;12.05;10.85;;;17.40;99.90;;;;;;4995692;28;20034;-75
2021/06/11 00:35:44;;;;;;;12.20;10.90;;;17.40;99.90;;;;;;4989794;28;20030;-74
2021/06/11 00:38:12;;;;;;;12.65;10.55;;;17.40;99.90;;;;;;4993580;28;20030;-74
2021/06/11 00:40:39;;;;;;;12.23;10.85;;;17.40;99.90;;;;;;4989497;28;20494;-74
2021/06/11 00:43:11;;;;;;;11.70;10.60;;;17.30;99.90;;;;;;4990193;28;20044;-74
2021/06/11 00:45:38;;;;;;;13.50;11.05;;;17.30;99.90;;;;;;4994858;28;20053;-74
2021/06/11 00:48:06;;;;;;;12.25;10.95;;;17.30;99.90;;;;;;4994085;28;20049;-74
2021/06/11 00:50:34;;;;;;;11.50;10.25;;;17.30;99.90;;;;;;4980289;28;20039;-74
2021/06/11 00:53:02;;;;;;;11.68;10.48;;;17.30;99.90;;;;;;4995411;28;20026;-75
2021/06/11 00:55:32;;;;;;;11.88;10.68;;;17.20;99.90;;;;;;4995484;28;20526;-75
2021/06/11 00:58:00;;;;;;;12.75;11.43;;;17.20;99.90;;;;;;4992570;28;20154;-75
2021/06/11 01:00:26;;;;;;;12.55;11.25;;;17.20;99.90;;;;;;4987220;28;20481;-75
2021/06/11 01:02:52;;;;;;;11.50;10.30;;;17.20;99.90;;;;;;5001680;28;20046;-74
2021/06/11 01:05:17;;;;;;;11.77;10.43;;;17.10;99.90;;;;;;4985245;28;20041;-75
2021/06/11 01:07:47;;;;;;;13.55;11.00;;;17.10;99.90;;;;;;4993272;28;20034;-74
2021/06/11 01:10:13;;;;;;;11.48;10.38;;;17.10;99.90;;;;;;4996575;28;20050;-75
2021/06/11 01:12:42;;;;;;;12.50;11.20;;;17.00;99.90;;;;;;4993961;28;20023;-75
2021/06/11 01:15:08;;;;;;;11.48;10.23;;;17.00;99.90;;;;;;4977800;28;20042;-75
2021/06/11 01:17:34;;;;;;;11.65;10.55;;;17.00;99.90;;;;;;4969175;28;20030;-75
2021/06/11 01:20:00;;;;;;;12.15;10.98;;;17.00;99.90;;;;;;4979747;28;20048;-75
2021/06/11 01:22:50;;;;;;;12.65;11.35;;;17.00;99.90;;;;;;4977860;28;20033;-75
2021/06/11 01:25:21;;;;;;;10.93;9.82;;;17.00;99.90;;;;;;4985033;28;20027;-75
2021/06/11 01:27:46;;;;;;;11.30;10.17;;;16.90;99.90;;;;;;4976030;28;20121;-75
2021/06/11 01:30:25;;;;;;;12.25;10.88;;;16.90;99.90;;;;;;4986022;28;20027;-75
2021/06/11 01:32:56;;;;;;;11.73;10.05;;;16.90;99.90;;;;;;4985776;28;20035;-75
2021/06/11 01:35:23;;;;;;;12.15;10.82;;;16.90;99.90;;;;;;4988563;28;20041;-75
2021/06/11 01:37:53;;;;;;;12.80;10.52;;;16.80;99.90;;;;;;4992981;28;20022;-75
2021/06/11 01:40:19;;;;;;;11.98;10.88;;;16.90;99.90;;;;;;4984644;28;20101;-75
2021/06/11 01:42:49;;;;;;;12.75;11.27;;;16.80;99.90;;;;;;4995038;28;20031;-75
2021/06/11 01:45:15;;;;;;;11.45;10.20;;;16.80;99.90;;;;;;4989633;28;20032;-75
2021/06/11 01:47:45;;;;;;;12.02;10.73;;;16.80;99.90;;;;;;4979367;28;21789;-75
2021/06/11 01:50:20;;;;;;;12.13;10.88;;;16.80;99.90;;;;;;5007360;28;20022;-75
2021/06/11 01:52:46;;;;;;;11.98;10.52;;;16.80;99.90;;;;;;4993436;28;20030;-75
2021/06/11 01:55:12;;;;;;;12.18;10.90;;;16.70;99.90;;;;;;4981183;28;20435;-75
2021/06/11 01:57:40;;;;;;;12.27;11.07;;;16.70;99.90;;;;;;4977928;28;20018;-75
2021/06/11 02:00:06;;;;;;;12.35;11.05;;;16.70;99.90;;;;;;4990131;28;20022;-75
2021/06/11 02:02:31;;;;;;;12.60;11.20;;;16.60;99.90;;;;;;4989374;28;20038;-75
2021/06/11 02:04:57;;;;;;;11.35;10.18;;;16.60;99.90;;;;;;4980356;28;20045;-75
2021/06/11 02:07:24;;;;;;;12.25;11.00;;;16.60;99.90;;;;;;4985654;28;20038;-75
2021/06/11 02:09:52;;;;;;;12.23;11.02;;;16.60;99.90;;;;;;4974366;28;20045;-75
2021/06/11 02:12:20;;;;;;;12.50;11.30;;;16.60;99.90;;;;;;4969489;28;20055;-75
2021/06/11 02:14:45;;;;;;;12.65;11.38;;;16.60;99.90;;;;;;4969493;28;20184;-75
2021/06/11 02:17:11;;;;;;;12.10;10.90;;;16.50;99.90;;;;;;4986204;28;20043;-74
2021/06/11 02:19:37;;;;;;;11.77;10.60;;;16.50;99.90;;;;;;4986005;28;20113;-75
2021/06/11 02:22:03;;;;;;;12.05;10.57;;;16.50;99.90;;;;;;4969615;28;20712;-75
2021/06/11 02:24:31;;;;;;;11.68;10.48;;;16.50;99.90;;;;;;4985649;28;20058;-74
2021/06/11 02:26:57;;;;;;;12.65;10.70;;;16.50;99.90;;;;;;4969105;28;20026;-74
2021/06/11 02:29:25;;;;;;;11.73;10.60;;;16.50;99.90;;;;;;4971717;28;20031;-75
2021/06/11 02:31:51;;;;;;;12.45;11.15;;;16.50;99.90;;;;;;4973895;28;20034;-75
2021/06/11 02:34:17;;;;;;;11.90;10.70;;;16.50;99.90;;;;;;4990996;28;20027;-75
2021/06/11 02:36:43;;;;;;;12.18;10.90;;;16.50;99.90;;;;;;4975133;28;20053;-75
2021/06/11 02:39:10;;;;;;;12.23;10.77;;;16.50;99.90;;;;;;4974169;28;20035;-75
2021/06/11 02:41:42;;;;;;;11.90;10.52;;;16.40;99.90;;;;;;4981229;28;20141;-75
2021/06/11 02:44:11;;;;;;;12.30;10.75;;;16.40;99.90;;;;;;4986280;28;20031;-75
2021/06/11 02:46:42;;;;;;;13.23;11.32;;;16.40;99.90;;;;;;4991249;28;20044;-75
2021/06/11 02:49:21;;;;;;;11.57;10.48;;;16.40;99.90;;;;;;4990650;28;20038;-75
2021/06/11 02:51:51;;;;;;;11.65;10.18;;;16.40;99.90;;;;;;5003634;28;20636;-75
2021/06/11 02:54:25;;;;;;;12.90;11.60;;;16.40;99.90;;;;;;4977617;28;20182;-75
2021/06/11 02:56:58;;;;;;;11.63;10.43;;;16.40;99.90;;;;;;4978794;28;20026;-75
2021/06/11 02:59:30;;;;;;;12.65;11.35;;;16.40;99.90;;;;;;4978734;28;20026;-75
2021/06/11 03:02:00;;;;;;;12.13;10.70;;;16.30;99.90;;;;;;4989691;28;20038;-75
2021/06/11 03:04:26;;;;;;;12.30;10.98;;;16.30;99.90;;;;;;4972434;28;20144;-75
2021/06/11 03:06:56;;;;;;;13.98;11.70;;;16.30;99.90;;;;;;4968540;28;21832;-75
2021/06/11 03:09:26;;;;;;;12.65;10.98;;;16.30;99.90;;;;;;4974920;28;20061;-75
2021/06/11 03:11:56;;;;;;;12.48;11.18;;;16.30;99.90;;;;;;4985670;28;21571;-75
2021/06/11 03:14:23;;;;;;;13.00;11.00;;;16.30;99.90;;;;;;4963554;28;20044;-75
2021/06/11 03:16:55;;;;;;;13.65;12.35;;;16.30;99.90;;;;;;4989458;28;20040;-75
2021/06/11 03:19:24;;;;;;;13.30;10.90;;;16.30;99.90;;;;;;4976043;28;20034;-75
2021/06/11 03:22:01;;;;;;;14.00;11.52;;;16.30;99.90;;;;;;4974024;28;20049;-75
2021/06/11 03:24:36;;;;;;;13.35;11.05;;;16.30;99.90;;;;;;4979095;28;20037;-75
2021/06/11 03:27:04;;;;;;;13.10;11.65;;;16.30;99.90;;;;;;4994020;28;20022;-75
2021/06/11 03:29:33;;;;;;;11.93;10.73;;;16.30;99.90;;;;;;4988863;28;20033;-75
2021/06/11 03:32:00;;;;;;;12.63;11.35;;;16.30;99.90;;;;;;4960930;28;20049;-75
2021/06/11 03:34:37;;;;;;;11.75;10.55;;;16.30;99.90;;;;;;4988248;28;20030;-75
2021/06/11 03:37:10;;;;;;;12.65;11.45;;;16.30;99.90;;;;;;4966109;28;20509;-75
2021/06/11 03:39:54;;;;;;;14.63;12.43;;;16.30;99.90;;;;;;4963242;28;20065;-75
2021/06/11 03:42:22;;;;;;;13.45;12.05;;;16.30;99.90;;;;;;4972767;28;20022;-75
2021/06/11 03:44:54;;;;;;;12.65;11.35;;;16.30;99.90;;;;;;4988075;28;20432;-75
2021/06/11 03:47:25;;;;;;;14.20;12.80;;;16.30;99.90;;;;;;4988272;28;20093;-75
2021/06/11 03:49:53;;;;;;;13.60;12.20;;;16.30;99.90;;;;;;4975531;28;20038;-75
2021/06/11 03:52:24;;;;;;;13.25;11.93;;;16.30;99.90;;;;;;4988542;28;20153;-75
2021/06/11 03:54:50;;;;;;;14.90;12.60;;;16.30;99.90;;;;;;4976905;28;20026;-75
2021/06/11 03:57:18;;;;;;;13.25;11.85;;;16.30;99.90;;;;;;4988411;28;20273;-75
2021/06/11 03:59:44;;;;;;;14.00;12.60;;;16.30;99.90;;;;;;4977050;28;20114;-75
2021/06/11 04:02:10;;;;;;;13.30;11.98;;;16.40;99.90;;;;;;4971360;28;20578;-75
2021/06/11 04:04:38;;;;;;;13.85;12.52;;;16.40;99.90;;;;;;4974465;28;20034;-75
2021/06/11 04:07:24;;;;;;;14.75;13.27;;;16.40;99.90;;;;;;4973948;28;20372;-75
2021/06/11 04:09:55;;;;;;;13.57;12.18;;;16.40;99.90;;;;;;4990121;28;20026;-75
2021/06/11 04:12:28;;;;;;;13.82;12.48;;;16.40;99.90;;;;;;4991974;28;20655;-75
2021/06/11 04:14:54;;;;;;;13.02;11.73;;;16.50;99.90;;;;;;5007594;28;20034;-74
2021/06/11 04:17:24;;;;;;;13.88;11.43;;;16.50;99.90;;;;;;4990654;28;20090;-74
2021/06/11 04:19:57;;;;;;;13.35;12.05;;;16.50;99.90;;;;;;4995229;28;20027;-75
2021/06/11 04:22:28;;;;;;;13.30;12.00;;;16.50;99.90;;;;;;4979046;28;20608;-75
2021/06/11 04:24:54;;;;;;;14.07;12.65;;;16.50;99.90;;;;;;4978505;28;20069;-75
2021/06/11 04:27:20;;;;;;;15.40;13.90;;;16.50;99.90;;;;;;4991246;28;20030;-75
2021/06/11 04:29:46;;;;;;;15.02;13.60;;;16.50;99.90;;;;;;4971223;28;20057;-75
2021/06/11 04:32:12;;;;;;;14.95;13.35;;;16.60;99.90;;;;;;4980136;28;20063;-75
2021/06/11 04:34:40;;;;;;;16.02;14.30;;;16.60;99.90;;;;;;4996832;28;20053;-75
2021/06/11 04:37:05;;;;;;;14.50;13.10;;;16.60;99.90;;;;;;4985380;28;20035;-75
2021/06/11 04:39:31;;;;;;;14.50;12.90;;;16.60;99.90;;;;;;4986501;28;20078;-75
2021/06/11 04:41:59;;;;;;;13.70;12.40;;;16.70;99.90;;;;;;4993422;28;20034;-75
2021/06/11 04:44:26;;;;;;;14.70;13.02;;;16.70;99.90;;;;;;4965265;28;21788;-75
2021/06/11 04:46:52;;;;;;;13.55;12.15;;;16.70;99.90;;;;;;4989858;28;20030;-75
2021/06/11 04:49:22;;;;;;;14.20;12.80;;;16.70;99.90;;;;;;4988928;28;20037;-75
2021/06/11 04:51:53;;;;;;;14.43;13.02;;;16.70;99.90;;;;;;4983530;28;20042;-75
2021/06/11 04:54:20;;;;;;;14.38;12.98;;;16.80;99.90;;;;;;4983736;28;20035;-75
2021/06/11 04:56:48;;;;;;;15.00;13.50;;;16.80;99.90;;;;;;4978162;28;20022;-75
2021/06/11 04:59:17;;;;;;;14.23;12.82;;;16.80;99.90;;;;;;4996336;28;20047;-75
2021/06/11 05:01:45;;;;;;;14.40;13.00;;;16.90;99.90;;;;;;4995043;28;20085;-75
2021/06/11 05:04:12;;;;;;;14.05;12.70;;;16.90;99.90;;;;;;4986304;28;20038;-75
2021/06/11 05:06:40;;;;;;;14.95;13.43;;;16.90;99.90;;;;;;4976362;28;20113;-75
2021/06/11 05:09:06;;;;;;;14.70;13.30;;;17.00;99.90;;;;;;4976290;28;20088;-75
2021/06/11 05:11:36;;;;;;;14.98;13.48;;;17.00;99.90;;;;;;4991558;28;20038;-75
2021/06/11 05:14:04;;;;;;;14.45;13.05;;;17.10;99.90;;;;;;4986542;28;20034;-75
2021/06/11 05:16:32;;;;;;;13.95;12.65;;;17.10;99.90;;;;;;4978455;28;20038;-75
2021/06/11 05:18:59;;;;;;;13.80;12.55;;;17.20;99.90;;;;;;4986544;28;20428;-75
2021/06/11 05:21:30;;;;;;;15.07;13.57;;;17.20;99.90;;;;;;4991117;28;20109;-79
2021/06/11 05:23:55;;;;;;;14.38;12.88;;;17.20;99.90;;;;;;4990034;28;20076;-76
2021/06/11 05:26:21;;;;;;;15.77;14.27;;;17.30;99.90;;;;;;4976542;28;20113;-76
2021/06/11 05:28:47;;;;;;;14.65;13.27;;;17.30;99.90;;;;;;4976016;28;20253;-75
2021/06/11 05:31:15;;;;;;;14.45;13.05;;;17.40;99.90;;;;;;4990984;28;20034;-74
2021/06/11 05:33:41;;;;;;;14.18;12.77;;;17.40;99.90;;;;;;4975870;28;20084;-75
2021/06/11 05:36:07;;;;;;;14.40;13.00;;;17.50;99.90;;;;;;4979848;28;20035;-75
2021/06/11 05:38:33;;;;;;;12.93;11.73;;;17.50;99.90;;;;;;4974852;28;20035;-75
2021/06/11 05:41:02;;;;;;;14.15;12.75;;;17.60;99.90;;;;;;4960890;28;20026;-75
2021/06/11 05:43:30;;;;;;;14.00;12.70;;;17.60;99.90;;;;;;4984490;28;20243;-77
2021/06/11 05:45:56;;;;;;;14.27;12.77;;;17.70;99.90;;;;;;4988339;28;20034;-78
2021/06/11 05:48:26;;;;;;;14.38;12.98;;;17.70;99.90;;;;;;4976045;28;20514;-75
2021/06/11 05:50:55;;;;;;;14.32;12.82;;;17.80;99.90;;;;;;4989273;28;20035;-75
2021/06/11 05:53:22;;;;;;;14.85;13.45;;;17.80;99.90;;;;;;4981668;28;20059;-75
2021/06/11 05:55:52;;;;;;;14.15;12.85;;;17.90;99.90;;;;;;4985901;28;20117;-75
2021/06/11 05:58:20;;;;;;;14.85;13.35;;;17.90;99.90;;;;;;4976081;28;20041;-75
2021/06/11 06:00:46;;;;;;;16.05;14.48;;;17.90;99.90;;;;;;4976359;28;20038;-75
2021/06/11 06:03:11;;;;;;;16.02;14.32;;;18.00;99.90;;;;;;4981953;28;20046;-75
2021/06/11 06:05:39;;;;;;;15.65;14.13;;;18.00;99.90;;;;;;4973512;28;20027;-75
2021/06/11 06:08:05;;;;;;;15.32;13.77;;;18.10;99.90;;;;;;4975771;28;20026;-75
2021/06/11 06:10:33;;;;;;;17.33;15.68;;;18.10;99.90;;;;;;4989613;28;20023;-75
2021/06/11 06:12:58;;;;;;;16.65;15.10;;;18.20;99.90;;;;;;5002368;28;20019;-75
2021/06/11 06:15:24;;;;;;;16.30;14.43;;;18.30;99.90;;;;;;4979360;28;20045;-75
2021/06/11 06:17:49;;;;;;;17.42;15.73;;;18.30;99.90;;;;;;4974076;28;20030;-75
2021/06/11 06:20:20;;;;;;;18.80;17.00;;;18.40;99.90;;;;;;4975272;28;20416;-75
2021/06/11 06:22:48;;;;;;;18.20;16.40;;;18.40;99.90;;;;;;4984309;28;20129;-76
2021/06/11 06:25:14;;;;;;;15.75;14.15;;;18.40;99.90;;;;;;4990549;28;20108;-75
2021/06/11 06:27:40;;;;;;;16.73;15.00;;;18.50;99.90;;;;;;4973968;28;20433;-75
2021/06/11 06:30:07;;;;;;;18.17;15.30;;;18.60;99.90;;;;;;4973441;28;20138;-76
2021/06/11 06:32:37;;;;;;;16.48;14.80;;;18.60;99.90;;;;;;4990887;28;20038;-76
2021/06/11 06:35:12;;;;;;;16.80;15.10;;;18.70;99.90;;;;;;4975494;28;20022;-75
2021/06/11 06:37:37;;;;;;;16.15;14.55;;;18.70;99.90;;;;;;4990590;28;20043;-75
2021/06/11 06:40:08;;;;;;;17.48;15.77;;;18.80;99.90;;;;;;4973953;28;20045;-75
2021/06/11 06:42:34;;;;;;;15.48;13.98;;;18.80;99.90;;;;;;4976381;28;20030;-75
2021/06/11 06:45:03;;;;;;;15.15;13.65;;;18.90;99.90;;;;;;4967764;28;20053;-75
2021/06/11 06:47:28;;;;;;;15.23;13.63;;;18.90;99.90;;;;;;4976007;28;20035;-76
2021/06/11 06:49:56;;;;;;;16.75;14.75;;;19.00;99.90;;;;;;4987681;28;20141;-76
2021/06/11 06:52:22;;;;;;;14.05;12.65;;;19.00;99.90;;;;;;4987882;28;20516;-76
2021/06/11 06:54:50;;;;;;;13.57;12.23;;;19.00;99.90;;;;;;4979404;28;20022;-76
2021/06/11 06:57:15;;;;;;;14.45;12.98;;;19.10;99.90;;;;;;4984981;28;20030;-76
2021/06/11 06:59:43;;;;;;;14.13;12.73;;;19.20;99.90;;;;;;4976720;28;20034;-76
2021/06/11 07:02:10;;;;;;;14.50;13.10;;;19.20;99.90;;;;;;4987798;28;20073;-75
2021/06/11 07:04:35;;;;;;;14.35;11.73;;;19.20;99.90;;;;;;4981811;28;20457;-76
2021/06/11 07:07:01;;;;;;;12.85;11.45;;;19.30;99.90;;;;;;4980054;28;20026;-76
2021/06/11 07:09:28;;;;;;;12.07;10.68;;;19.40;99.90;;;;;;4977931;28;20146;-76
2021/06/11 07:11:53;;;;;;;13.77;11.88;;;19.40;99.90;;;;;;4980731;28;20038;-75
2021/06/11 07:14:19;;;;;;;12.73;11.52;;;19.40;99.90;;;;;;4977780;28;20037;-76
2021/06/11 07:16:45;;;;;;;14.13;12.55;;;19.50;99.90;;;;;;4988791;28;20031;-76
2021/06/11 07:19:11;;;;;;;13.68;12.18;;;19.60;99.90;;;;;;4988208;28;20963;-76
2021/06/11 07:21:37;;;;;;;13.00;11.70;;;19.70;99.90;;;;;;4977499;28;20084;-76
2021/06/11 07:24:03;;;;;;;12.85;11.55;;;19.70;99.90;;;;;;4975200;28;20046;-75
2021/06/11 07:26:28;;;;;;;13.93;12.43;;;19.80;99.90;;;;;;4977078;28;20341;-75
2021/06/11 07:28:56;;;;;;;12.38;11.13;;;19.90;99.90;;;;;;4992979;28;20105;-76
2021/06/11 07:31:22;;;;;;;12.93;11.55;;;20.00;99.90;;;;;;4992528;28;20034;-76
2021/06/11 07:33:51;;;;;;;11.77;10.68;;;20.10;99.90;;;;;;4976513;28;20041;-76
2021/06/11 07:36:16;;;;;;;11.98;10.77;;;20.20;99.90;;;;;;4980670;28;20044;-76
2021/06/11 07:38:42;;;;;;;13.85;10.93;;;20.40;99.90;;;;;;4977946;28;20027;-76
2021/06/11 07:41:08;;;;;;;11.57;10.48;;;20.50;99.90;;;;;;4977993;28;20492;-76
2021/06/11 07:43:35;;;;;;;11.52;10.30;;;20.80;99.90;;;;;;4987007;28;20026;-76
2021/06/11 07:46:06;;;;;;;11.65;10.48;;;21.00;99.90;;;;;;4977199;28;20031;-76
2021/06/11 07:48:34;;;;;;;13.32;12.02;;;21.20;99.90;;;;;;4977912;28;20073;-76
2021/06/11 07:51:04;;;;;;;12.05;10.95;;;21.50;99.90;;;;;;4976728;28;20707;-77
2021/06/11 07:53:32;;;;;;;14.02;11.45;;;21.70;99.90;;;;;;4978844;28;20628;-76
2021/06/11 07:55:57;;;;;;;12.13;10.73;;;21.90;99.90;;;;;;4977064;28;20475;-76
2021/06/11 07:58:25;;;;;;;11.82;10.68;;;22.00;99.90;;;;;;4977053;28;20026;-76
2021/06/11 08:00:53;;;;;;;11.45;10.40;;;22.30;99.90;;;;;;4977126;28;20030;-76
2021/06/11 08:03:19;;;;;;;11.48;10.35;;;22.50;99.90;;;;;;4976698;28;20042;-76
2021/06/11 08:05:49;;;;;;;11.00;9.90;;;22.70;99.90;;;;;;4978293;28;20073;-76
2021/06/11 08:08:15;;;;;;;11.45;10.40;;;22.80;99.90;;;;;;4976977;28;20032;-76
2021/06/11 08:10:40;;;;;;;10.60;9.60;;;23.00;99.90;;;;;;4986963;28;20030;-76
2021/06/11 08:13:06;;;;;;;12.05;9.40;;;23.10;99.90;;;;;;4978859;28;20046;-76
2021/06/11 08:15:34;;;;;;;10.95;9.45;;;23.30;99.90;;;;;;4987159;28;20022;-75
2021/06/11 08:18:03;;;;;;;10.90;9.88;;;23.50;99.90;;;;;;4992208;28;20034;-76
2021/06/11 08:20:31;;;;;;;12.77;10.48;;;23.60;99.90;;;;;;4976937;28;20540;-76
2021/06/11 08:22:56;;;;;;;10.52;9.30;;;23.70;99.90;;;;;;4976947;28;20471;-76
2021/06/11 08:25:23;;;;;;;11.07;9.82;;;23.90;99.90;;;;;;4987341;28;20015;-76
2021/06/11 08:27:49;;;;;;;10.80;9.73;;;24.10;99.90;;;;;;4978832;28;20546;-75
2021/06/11 08:30:15;;;;;;;10.73;9.73;;;24.30;99.90;;;;;;4976645;28;20022;-75
2021/06/11 08:32:41;;;;;;;10.35;9.35;;;24.40;99.90;;;;;;4986135;28;20369;-75
2021/06/11 08:35:07;;;;;;;10.30;9.30;;;24.50;99.90;;;;;;4978493;28;20065;-76
2021/06/11 08:37:35;;;;;;;11.40;10.32;;;24.60;99.90;;;;;;4977321;28;20045;-76
2021/06/11 08:40:02;;;;;;;11.02;9.57;;;24.60;94.70;;;;;;4970409;28;20647;-76
2021/06/11 08:42:30;;;;;;;11.35;10.15;;;24.70;99.90;;;;;;4976946;28;20099;-75
2021/06/11 08:45:01;;;;;;;10.15;9.15;;;24.80;99.90;;;;;;4961306;28;20042;-75
2021/06/11 08:47:27;;;;;;;13.43;10.15;;;25.00;99.90;;;;;;4975056;28;20037;-75
2021/06/11 08:49:53;;;;;;;10.88;9.88;;;25.00;96.30;;;;;;4976225;28;20035;-75
2021/06/11 08:52:19;;;;;;;10.80;9.70;;;25.10;94.40;;;;;;4979295;28;20042;-75
2021/06/11 08:54:47;;;;;;;11.23;10.02;;;25.20;99.90;;;;;;4982131;28;20045;-75
2021/06/11 08:57:13;;;;;;;10.88;9.55;;;25.20;97.90;;;;;;4976261;28;20446;-75
2021/06/11 08:59:39;;;;;;;10.85;9.85;;;25.20;97.30;;;;;;4976443;28;20069;-74
2021/06/11 09:02:05;;;;;;;10.65;9.55;;;25.40;98.20;;;;;;4970438;28;20125;-74
2021/06/11 09:04:55;;;;;;;11.05;9.32;;;25.50;99.90;;;;;;4976400;28;20027;-74
2021/06/11 09:07:32;;;;;;;12.38;11.10;;;25.60;99.90;;;;;;4974806;28;20060;-74
2021/06/11 09:10:00;;;;;;;11.40;10.20;;;25.60;91.30;;;;;;4959658;28;20118;-76
2021/06/11 09:12:35;;;;;;;10.63;9.60;;;25.60;86.80;;;;;;4975065;28;20058;-75
2021/06/11 09:15:09;;;;;;;9.00;8.20;;;25.60;91.40;;;;;;4986189;28;20484;-74
2021/06/11 09:17:42;;;;;;;11.05;9.90;;;25.70;94.30;;;;;;4986633;28;20034;-75
2021/06/11 09:20:17;;;;;;;10.88;9.30;;;25.70;84.20;;;;;;4975732;28;20042;-74
2021/06/11 09:22:52;;;;;;;10.27;8.77;;;25.60;91.40;;;;;;4975889;28;20054;-75
2021/06/11 09:25:25;;;;;;;9.98;9.07;;;25.70;92.20;;;;;;4975216;28;20034;-74
2021/06/11 09:28:00;;;;;;;9.15;8.32;;;25.70;90.20;;;;;;4976455;28;20057;-75
2021/06/11 09:30:40;;;;;;;11.80;9.45;;;25.70;94.70;;;;;;4977867;28;20034;-74
2021/06/11 09:33:10;;;;;;;10.05;8.63;;;25.80;83.20;;;;;;4990516;28;20602;-75
2021/06/11 09:35:41;;;;;;;9.95;8.95;;;25.80;88.90;;;;;;4972462;28;20038;-74
2021/06/11 09:38:20;;;;;;;12.67;8.90;;;25.90;86.50;;;;;;4991895;28;20049;-74
2021/06/11 09:40:52;;;;;;;10.48;8.73;;;25.90;80.10;;;;;;4978742;28;20037;-74
2021/06/11 09:43:18;;;;;;;12.15;8.80;;;26.00;90.90;;;;;;4985609;28;20040;-74
2021/06/11 09:45:44;;;;;;;9.80;8.60;;;25.80;80.60;;;;;;4986318;28;20030;-74
2021/06/11 09:48:24;;;;;;;9.38;8.40;;;26.00;92.10;;;;;;4985429;28;20936;-74
2021/06/11 09:50:51;;;;;;;10.30;8.67;;;26.10;96.50;;;;;;4985624;28;20033;-74
2021/06/11 09:53:17;;;;;;;10.40;9.07;;;26.20;94.10;;;;;;4985251;28;20342;-74
2021/06/11 09:55:45;;;;;;;9.70;8.70;;;26.20;91.00;;;;;;4975279;28;20030;-74
2021/06/11 09:58:19;;;;;;;9.38;8.23;;;26.30;94.90;;;;;;4975811;28;20105;-74
2021/06/11 10:00:46;;;;;;;10.68;8.57;;;26.40;98.10;;;;;;4985545;28;20594;-74
2021/06/11 10:03:14;;;;;;;11.73;8.63;;;26.40;91.30;;;;;;4975178;28;20051;-74
2021/06/11 10:05:40;;;;;;;9.20;8.30;;;26.30;79.40;;;;;;4976047;28;20031;-74
2021/06/11 10:08:06;;;;;;;9.68;8.77;;;26.30;89.90;;;;;;4985590;28;20042;-74
2021/06/11 10:10:31;;;;;;;10.80;9.20;;;26.30;77.00;;;;;;4975083;28;20421;-74
2021/06/11 10:12:57;;;;;;;10.95;9.75;;;26.20;76.60;;;;;;4985704;28;20027;-74
2021/06/11 10:15:23;;;;;;;9.20;8.30;;;26.30;80.50;;;;;;4985000;28;20022;-74
2021/06/11 10:17:48;;;;;;;9.43;8.43;;;26.50;90.90;;;;;;4978398;28;20058;-74
2021/06/11 10:20:16;;;;;;;11.63;8.10;;;26.60;87.50;;;;;;4989050;28;20142;-74
2021/06/11 10:22:44;;;;;;;9.00;8.10;;;26.70;94.50;;;;;;4989631;28;21968;-74
2021/06/11 10:25:12;;;;;;;9.23;7.47;;;26.70;82.50;;;;;;4988786;28;20122;-74
2021/06/11 10:27:42;;;;;;;10.35;8.10;;;26.60;82.80;;;;;;4978824;28;20023;-74
2021/06/11 10:30:09;;;;;;;7.97;7.18;;;26.60;75.60;;;;;;4993463;28;20038;-74
2021/06/11 10:32:40;;;;;;;9.82;7.60;;;26.40;83.40;;;;;;4972797;28;20030;-74
2021/06/11 10:35:09;;;;;;;9.60;7.60;;;26.40;88.50;;;;;;4974087;28;21735;-74
2021/06/11 10:37:39;;;;;;;8.75;7.70;;;26.40;89.90;;;;;;4979547;28;20042;-74
2021/06/11 10:40:24;;;;;;;9.05;7.25;;;26.40;80.50;;;;;;4977909;28;20045;-74
2021/06/11 10:42:52;;;;;;;8.73;7.05;;;26.50;86.90;;;;;;4988809;28;20037;-75
2021/06/11 10:45:46;;;;;;;8.23;7.03;;;26.60;86.40;;;;;;4981840;28;20117;-75
2021/06/11 10:48:12;;;;;;;9.43;6.80;;;26.60;84.90;;;;;;4971709;28;20077;-75
2021/06/11 10:50:39;;;;;;;9.13;8.05;;;26.60;77.90;;;;;;4979993;28;20050;-75
2021/06/11 10:53:31;;;;;;;9.48;8.60;;;26.50;76.30;;;;;;4979563;28;20062;-75
2021/06/11 10:56:15;;;;;;;;;;;26.30;78.50;;;;;;4988412;28;20117;-74
2021/06/11 10:58:44;;;;;;;9.40;8.10;;;26.20;78.20;;;;;;4979223;28;19945;-74
2021/06/11 11:01:33;;;;;;;9.57;8.10;;;26.10;82.10;;;;;;4988510;28;20027;-74
2021/06/11 11:04:31;;;;;;;8.45;7.60;;;26.20;90.10;;;;;;4988578;28;20061;-75
2021/06/11 11:06:57;;;;;;;7.95;6.72;;;26.30;88.00;;;;;;4978800;28;20027;-75
2021/06/11 11:09:25;;;;;;;9.32;7.53;;;26.50;93.50;;;;;;4977993;28;20039;-75
2021/06/11 11:11:58;;;;;;;8.52;6.45;;;26.70;91.40;;;;;;4971554;28;20487;-75
2021/06/11 11:14:40;;;;;;;9.77;7.55;;;26.90;91.60;;;;;;4979255;28;20065;-75
2021/06/11 11:17:06;;;;;;;10.48;6.65;;;26.90;85.30;;;;;;4988671;28;20150;-74
2021/06/11 11:19:48;;;;;;;8.77;6.25;;;26.80;82.30;;;;;;4972708;28;20092;-75
2021/06/11 11:22:38;;;;;;;7.85;6.50;;;26.90;91.70;;;;;;4978317;28;20030;-74
2021/06/11 11:25:13;;;;;;;7.10;6.40;;;26.80;92.10;;;;;;4980301;28;20041;-75
2021/06/11 11:27:41;;;;;;;7.43;5.90;;;26.90;91.90;;;;;;4981192;28;20089;-74
2021/06/11 11:30:10;;;;;;;9.38;5.60;;;26.90;94.30;;;;;;4977008;28;20034;-74
2021/06/11 11:32:38;;;;;;;7.40;4.90;;;27.00;90.40;;;;;;4987696;28;20121;-74
2021/06/11 11:35:06;;;;;;;6.70;4.50;;;26.90;86.00;;;;;;4977290;28;20346;-74
2021/06/11 11:37:32;;;;;;;7.38;5.07;;;27.00;82.60;;;;;;4979480;28;20034;-74
2021/06/11 11:40:01;;;;;;;7.47;5.13;;;26.90;80.60;;;;;;4975350;28;20030;-74
2021/06/11 11:42:26;;;;;;;6.20;4.60;;;26.90;90.60;;;;;;4978031;28;20042;-74
2021/06/11 11:44:52;;;;;;;7.13;4.97;;;26.80;90.20;;;;;;4977196;28;20033;-74
2021/06/11 11:47:18;;;;;;;6.72;5.22;;;26.70;92.20;;;;;;4978006;28;20045;-74
2021/06/11 11:49:43;;;;;;;6.22;4.97;;;26.70;93.60;;;;;;4977504;28;20026;-74
2021/06/11 11:52:09;;;;;;;5.50;4.85;;;26.70;91.40;;;;;;4993137;28;20500;-74
2021/06/11 11:54:35;;;;;;;6.53;4.90;;;26.70;86.80;;;;;;4978984;28;20033;-74
2021/06/11 11:57:01;;;;;;;6.00;4.75;;;26.60;88.70;;;;;;4976351;28;20031;-74
2021/06/11 11:59:27;;;;;;;6.07;4.50;;;26.60;85.00;;;;;;4980506;28;20177;-74
2021/06/11 12:01:52;;;;;;;5.45;4.43;;;26.60;91.70;;;;;;4987129;28;20023;-74
2021/06/11 12:04:18;;;;;;;5.97;4.43;;;26.60;88.80;;;;;;4977186;28;20038;-74
2021/06/11 12:06:46;;;;;;;6.80;4.50;;;26.60;85.70;;;;;;4975827;28;20026;-74
2021/06/11 12:09:12;;;;;;;7.10;4.38;;;26.50;93.60;;;;;;4987355;28;20046;-74
2021/06/11 12:11:40;;;;;;;6.25;4.00;;;26.50;91.70;;;;;;4977552;28;20030;-74
2021/06/11 12:14:08;;;;;;;5.38;3.70;;;26.50;92.10;;;;;;4988296;28;20044;-74
2021/06/11 12:16:34;;;;;;;5.05;3.90;;;26.40;93.30;;;;;;4987024;28;20041;-74
2021/06/11 12:19:03;;;;;;;6.05;3.85;;;26.30;94.10;;;;;;4976600;28;20046;-74
2021/06/11 12:21:29;;;;;;;4.60;3.85;;;26.30;92.70;;;;;;4991522;28;20027;-74
2021/06/11 12:23:57;;;;;;;5.47;3.47;;;26.20;94.10;;;;;;4976566;28;20531;-74
2021/06/11 12:26:25;;;;;;;5.75;3.45;;;26.00;87.20;;;;;;4986567;28;20026;-74
2021/06/11 12:28:52;;;;;;;5.78;3.38;;;25.90;91.40;;;;;;4978012;28;21727;-74
2021/06/11 12:31:17;;;;;;;6.22;3.50;;;25.70;91.40;;;;;;4986884;28;20502;-74
2021/06/11 12:33:43;;;;;;;4.63;3.00;;;25.70;92.90;;;;;;4986363;28;20030;-74
2021/06/11 12:36:11;;;;;;;6.05;3.33;;;25.50;89.50;;;;;;4976358;28;20041;-74
2021/06/11 12:38:37;;;;;;;5.10;3.00;;;25.40;93.30;;;;;;4976797;28;20069;-74
2021/06/11 12:41:04;;;;;;;4.78;2.90;;;25.40;95.50;;;;;;4985748;28;20035;-74